createdAt,value
2022-09-15T00:01:01.419Z,334.02
2022-09-15T00:03:28.572Z,310.60
2022-09-15T00:05:55.212Z,340.35
2022-09-15T00:08:23.221Z,341.30
2022-09-15T00:10:58.414Z,333.55
2022-09-15T00:13:25.864Z,332.45
2022-09-15T00:15:53.698Z,316.98
2022-09-15T00:18:20.299Z,316.80
2022-09-15T00:20:46.997Z,339.13
2022-09-15T00:23:15.506Z,323.02
2022-09-15T00:25:53.046Z,322.45
2022-09-15T00:28:21.898Z,307.33
2022-09-15T00:30:55.332Z,319.50
2022-09-15T00:33:23.049Z,310.70
2022-09-15T00:35:53.974Z,286.38
2022-09-15T00:38:21.141Z,279.77
2022-09-15T00:40:51.455Z,275.77
2022-09-15T00:43:21.871Z,265.77
2022-09-15T00:45:48.818Z,267.05
2022-09-15T00:48:20.602Z,266.20
2022-09-15T00:50:53.188Z,270.48
2022-09-15T00:53:20.773Z,263.60
2022-09-15T00:55:49.754Z,288.00
2022-09-15T00:58:22.779Z,271.63
2022-09-15T01:01:01.608Z,277.05
2022-09-15T01:03:32.664Z,271.42
2022-09-15T01:06:08.367Z,292.38
2022-09-15T01:08:40.949Z,301.77
2022-09-15T01:11:07.786Z,305.13
2022-09-15T01:13:34.983Z,321.90
2022-09-15T01:19:30.372Z,308.58
2022-09-15T01:22:12.777Z,292.42
2022-09-15T01:25:05.082Z,294.27
2022-09-15T01:27:56.163Z,295.05
2022-09-15T01:30:25.019Z,292.52
2022-09-15T01:33:19.003Z,302.30
2022-09-15T01:36:10.489Z,324.75
2022-09-15T01:39:03.864Z,329.10
2022-09-15T01:41:43.077Z,343.63
2022-09-15T01:44:22.096Z,331.38
2022-09-15T01:46:54.580Z,321.67
2022-09-15T01:49:26.338Z,326.53
2022-09-15T01:51:54.208Z,315.20
2022-09-15T01:54:29.805Z,301.33
2022-09-15T01:56:57.385Z,304.50
2022-09-15T01:59:24.021Z,317.35
2022-09-15T02:01:59.620Z,288.92
2022-09-15T02:04:38.752Z,289.83
2022-09-15T02:07:15.290Z,299.27
2022-09-15T02:09:54.623Z,287.15
2022-09-15T02:12:33.995Z,289.60
2022-09-15T02:15:12.389Z,275.67
2022-09-15T02:17:45.606Z,295.60
2022-09-15T02:20:25.375Z,281.08
2022-09-15T02:22:57.257Z,299.65
2022-09-15T02:25:38.266Z,283.33
2022-09-15T02:28:08.692Z,310.52
2022-09-15T02:30:41.878Z,297.38
2022-09-15T02:33:14.169Z,301.02
2022-09-15T02:35:41.942Z,304.83
2022-09-15T02:38:10.657Z,319.53
2022-09-15T02:40:42.369Z,302.23
2022-09-15T02:43:12.450Z,305.42
2022-09-15T02:45:39.532Z,302.67
2022-09-15T02:48:06.252Z,296.88
2022-09-15T02:50:32.757Z,305.13
2022-09-15T02:52:59.313Z,289.40
2022-09-15T02:55:28.936Z,302.83
2022-09-15T02:57:56.606Z,300.00
2022-09-15T03:00:23.698Z,309.30
2022-09-15T03:02:53.482Z,298.40
2022-09-15T03:05:23.266Z,301.20
2022-09-15T03:07:51.030Z,297.87
2022-09-15T03:10:17.788Z,304.90
2022-09-15T03:12:47.062Z,297.85
2022-09-15T03:15:16.705Z,300.83
2022-09-15T03:17:46.241Z,316.70
2022-09-15T03:20:16.177Z,312.25
2022-09-15T03:22:42.790Z,302.88
2022-09-15T03:25:10.604Z,336.67
2022-09-15T03:27:38.390Z,314.00
2022-09-15T03:30:06.438Z,321.05
2022-09-15T03:32:33.197Z,336.05
2022-09-15T03:34:59.785Z,333.73
2022-09-15T03:37:27.098Z,332.77
2022-09-15T03:39:53.774Z,317.75
2022-09-15T03:42:20.727Z,327.83
2022-09-15T03:44:47.328Z,306.50
2022-09-15T03:47:16.493Z,323.10
2022-09-15T03:49:43.203Z,299.38
2022-09-15T03:52:10.139Z,304.98
2022-09-15T03:54:36.703Z,302.00
2022-09-15T03:57:03.448Z,311.58
2022-09-15T03:59:30.091Z,304.23
2022-09-15T04:01:56.822Z,307.87
2022-09-15T04:04:23.411Z,299.52
2022-09-15T04:06:50.040Z,286.05
2022-09-15T04:09:16.625Z,293.77
2022-09-15T04:11:43.148Z,294.87
2022-09-15T04:14:09.762Z,293.98
2022-09-15T04:16:39.575Z,287.40
2022-09-15T04:19:06.232Z,302.10
2022-09-15T04:21:32.808Z,278.48
2022-09-15T04:23:59.303Z,292.73
2022-09-15T04:26:31.532Z,305.63
2022-09-15T04:29:03.722Z,289.57
2022-09-15T04:31:31.737Z,270.20
2022-09-15T04:33:58.403Z,281.95
2022-09-15T04:36:28.234Z,272.98
2022-09-15T04:38:55.386Z,279.40
2022-09-15T04:41:22.670Z,270.00
2022-09-15T04:43:51.997Z,287.30
2022-09-15T04:46:19.021Z,292.55
2022-09-15T04:48:48.777Z,301.25
2022-09-15T04:51:18.248Z,290.48
2022-09-15T04:53:45.328Z,284.52
2022-09-15T04:56:14.276Z,295.20
2022-09-15T04:58:45.147Z,277.33
2022-09-15T05:01:22.057Z,297.90
2022-09-15T05:03:49.466Z,281.27
2022-09-15T05:06:19.658Z,311.13
2022-09-15T05:08:51.281Z,278.83
2022-09-15T05:11:19.381Z,298.83
2022-09-15T05:13:48.660Z,285.00
2022-09-15T05:16:18.211Z,291.80
2022-09-15T05:18:46.280Z,291.02
2022-09-15T05:21:14.925Z,290.15
2022-09-15T05:23:44.516Z,279.90
2022-09-15T05:26:13.225Z,290.85
2022-09-15T05:28:40.313Z,291.63
2022-09-15T05:31:12.429Z,268.55
2022-09-15T05:33:39.829Z,288.58
2022-09-15T05:36:07.266Z,288.63
2022-09-15T05:38:34.293Z,290.48
2022-09-15T05:41:06.229Z,301.20
2022-09-15T05:43:34.586Z,319.17
2022-09-15T05:46:01.865Z,287.63
2022-09-15T05:48:29.203Z,318.57
2022-09-15T05:50:58.027Z,315.45
2022-09-15T05:53:28.433Z,301.77
2022-09-15T05:55:59.928Z,299.67
2022-09-15T05:58:34.772Z,310.38
2022-09-15T06:01:09.710Z,305.33
2022-09-15T06:03:36.752Z,309.25
2022-09-15T06:06:05.541Z,294.27
2022-09-15T06:08:34.341Z,278.48
2022-09-15T06:11:17.958Z,290.00
2022-09-15T06:13:47.864Z,285.20
2022-09-15T06:16:39.076Z,290.05
2022-09-15T06:19:05.801Z,297.33
2022-09-15T06:21:33.361Z,278.02
2022-09-15T06:24:03.321Z,295.50
2022-09-15T06:26:30.337Z,291.67
2022-09-15T06:29:02.205Z,285.45
2022-09-15T06:31:31.579Z,290.27
2022-09-15T06:33:59.278Z,286.90
2022-09-15T06:36:28.974Z,296.43
2022-09-15T06:38:59.595Z,282.73
2022-09-15T06:41:33.043Z,256.08
2022-09-15T06:44:17.747Z,267.58
2022-09-15T06:46:44.621Z,263.15
2022-09-15T06:49:11.343Z,259.38
2022-09-15T06:51:38.129Z,260.60
2022-09-15T06:54:06.053Z,267.40
2022-09-15T06:56:38.118Z,272.40
2022-09-15T06:59:05.720Z,273.05
2022-09-15T07:01:32.492Z,272.17
2022-09-15T07:04:00.947Z,250.90
2022-09-15T07:06:29.916Z,262.13
2022-09-15T07:08:58.403Z,266.55
2022-09-15T07:11:25.630Z,272.08
2022-09-15T07:13:52.696Z,279.23
2022-09-15T07:16:24.210Z,270.08
2022-09-15T07:18:54.409Z,267.08
2022-09-15T07:21:24.166Z,257.83
2022-09-15T07:23:52.837Z,246.73
2022-09-15T07:26:25.281Z,244.68
2022-09-15T07:28:57.888Z,242.23
2022-09-15T07:31:27.125Z,230.02
2022-09-15T07:33:54.104Z,234.02
2022-09-15T07:36:20.809Z,223.00
2022-09-15T07:38:49.470Z,221.18
2022-09-15T07:41:21.830Z,219.97
2022-09-15T07:43:53.340Z,213.13
2022-09-15T07:46:22.379Z,244.88
2022-09-15T07:48:54.523Z,233.75
2022-09-15T07:51:23.392Z,275.65
2022-09-15T07:53:50.969Z,311.92
2022-09-15T07:56:18.576Z,338.75
2022-09-15T07:58:49.142Z,326.02
2022-09-15T08:01:17.003Z,340.08
2022-09-15T08:03:46.502Z,353.92
2022-09-15T08:06:13.885Z,355.05
2022-09-15T08:08:41.323Z,381.03
2022-09-15T08:11:17.673Z,396.23
2022-09-15T08:13:49.911Z,344.20
2022-09-15T08:16:19.409Z,343.08
2022-09-15T08:18:46.254Z,323.40
2022-09-15T08:21:16.460Z,292.83
2022-09-15T08:23:43.176Z,238.32
2022-09-15T08:26:14.140Z,249.77
2022-09-15T08:28:43.802Z,245.67
2022-09-15T08:31:12.840Z,252.48
2022-09-15T08:33:45.212Z,237.98
2022-09-15T08:36:13.450Z,214.85
2022-09-15T08:38:40.929Z,202.30
2022-09-15T08:41:22.519Z,194.07
2022-09-15T08:44:08.299Z,149.98
2022-09-15T08:46:48.039Z,141.77
2022-09-15T08:49:49.950Z,130.63
2022-09-15T08:52:28.552Z,118.53
2022-09-15T08:54:58.356Z,84.20
2022-09-15T08:57:26.078Z,91.78
2022-09-15T08:59:55.035Z,100.35
2022-09-15T09:02:54.360Z,120.85
2022-09-15T09:05:41.569Z,125.57
2022-09-15T09:08:32.325Z,103.47
2022-09-15T09:11:20.514Z,86.97
2022-09-15T09:14:06.942Z,73.65
2022-09-15T09:17:04.545Z,73.90
2022-09-15T09:20:27.002Z,77.60
2022-09-15T09:22:54.657Z,97.85
2022-09-15T09:25:27.704Z,104.25
2022-09-15T09:27:58.136Z,104.70
2022-09-15T09:30:27.636Z,89.67
2022-09-15T09:33:11.210Z,82.97
2022-09-15T09:35:51.636Z,73.50
2022-09-15T09:38:32.306Z,79.53
2022-09-15T09:41:02.349Z,86.70
2022-09-15T09:43:33.054Z,73.20
2022-09-15T09:45:59.903Z,63.17
2022-09-15T09:48:27.642Z,80.32
2022-09-15T09:50:55.256Z,53.63
2022-09-15T09:53:26.621Z,45.40
2022-09-15T09:55:55.264Z,36.20
2022-09-15T09:58:25.762Z,38.70
2022-09-15T10:00:53.396Z,25.85
2022-09-15T10:03:23.323Z,28.87
2022-09-15T10:06:06.443Z,24.23
2022-09-15T10:08:33.659Z,22.55
2022-09-15T10:11:10.480Z,16.63
2022-09-15T10:13:50.704Z,23.17
2022-09-15T10:16:19.463Z,18.03
2022-09-15T10:18:54.017Z,11.70
2022-09-15T10:21:24.865Z,8.70
2022-09-15T10:23:51.936Z,6.88
2022-09-15T10:26:34.430Z,6.63
2022-09-15T10:29:12.599Z,7.30
2022-09-15T10:31:40.411Z,8.30
2022-09-15T10:34:30.402Z,8.18
2022-09-15T10:37:13.944Z,6.10
2022-09-15T10:39:53.774Z,4.90
2022-09-15T10:42:26.448Z,7.63
2022-09-15T10:45:18.833Z,5.93
2022-09-15T10:48:02.918Z,6.47
2022-09-15T10:50:40.077Z,6.30
2022-09-15T10:53:31.533Z,7.65
2022-09-15T10:56:12.560Z,5.57
2022-09-15T10:58:56.827Z,7.05
2022-09-15T11:01:31.955Z,4.85
2022-09-15T11:04:11.436Z,3.60
2022-09-15T11:07:03.134Z,4.80
2022-09-15T11:09:45.718Z,4.28
2022-09-15T11:12:16.749Z,3.80
2022-09-15T11:14:51.639Z,3.85
2022-09-15T11:17:37.607Z,3.38
2022-09-15T11:20:38.081Z,3.20
2022-09-15T11:23:27.501Z,3.47
2022-09-15T11:26:12.111Z,3.25
2022-09-15T11:28:52.604Z,3.40
2022-09-15T11:31:27.880Z,2.80
2022-09-15T11:34:13.749Z,3.28
2022-09-15T11:37:01.466Z,2.55
2022-09-15T11:39:39.825Z,3.17
2022-09-15T11:42:35.166Z,3.35
2022-09-15T11:45:03.340Z,3.17
2022-09-15T11:47:42.615Z,2.80
2022-09-15T11:50:23.100Z,3.20
2022-09-15T11:53:18.796Z,3.55
2022-09-15T11:56:00.404Z,3.67
2022-09-15T11:58:48.847Z,3.42
2022-09-15T12:01:21.522Z,3.10
2022-09-15T12:03:59.579Z,3.50
2022-09-15T12:06:47.715Z,3.50
2022-09-15T12:09:20.629Z,3.33
2022-09-15T12:11:51.588Z,3.80
2022-09-15T12:14:32.845Z,3.58
2022-09-15T12:17:00.031Z,3.60
2022-09-15T12:19:36.506Z,3.67
2022-09-15T12:22:12.180Z,3.72
2022-09-15T12:24:43.934Z,3.83
2022-09-15T12:27:19.537Z,3.58
2022-09-15T12:29:58.161Z,2.97
2022-09-15T12:32:33.180Z,3.25
2022-09-15T12:35:13.776Z,3.88
2022-09-15T12:37:47.658Z,3.97
2022-09-15T12:40:35.578Z,5.78
2022-09-15T12:43:23.496Z,16.50
2022-09-15T12:46:00.570Z,9.32
2022-09-15T12:48:33.796Z,6.32
2022-09-15T12:51:05.021Z,4.57
2022-09-15T12:56:11.742Z,4.43
2022-09-15T12:58:48.237Z,6.35
2022-09-15T13:01:27.104Z,9.80
2022-09-15T13:03:55.126Z,8.82
2022-09-15T13:06:22.772Z,6.70
2022-09-15T13:09:10.884Z,5.90
2022-09-15T13:11:42.926Z,4.40
2022-09-15T13:14:20.442Z,7.78
2022-09-15T13:16:53.759Z,70.65
2022-09-15T13:19:41.795Z,126.00
2022-09-15T13:22:11.508Z,106.88
2022-09-15T13:25:01.830Z,161.40
2022-09-15T13:27:51.746Z,65.65
2022-09-15T13:30:24.295Z,81.13
2022-09-15T13:39:51.696Z,3.95
2022-09-15T13:42:36.397Z,3.40
2022-09-15T13:45:29.608Z,3.40
2022-09-15T13:48:37.968Z,4.43
2022-09-15T13:51:19.387Z,7.30
2022-09-15T13:53:57.553Z,8.70
2022-09-15T13:56:32.951Z,10.45
2022-09-15T13:59:10.279Z,9.05
2022-09-15T14:01:42.820Z,5.82
2022-09-15T14:04:17.456Z,3.83
2022-09-15T14:06:51.856Z,3.70
2022-09-15T14:09:48.126Z,9.05
2022-09-15T14:12:19.538Z,25.08
2022-09-15T14:14:46.320Z,28.75
2022-09-15T14:17:28.748Z,41.73
2022-09-15T14:20:01.191Z,22.92
2022-09-15T14:22:34.836Z,22.85
2022-09-15T14:27:58.533Z,13.13
2022-09-15T14:43:51.902Z,3.78
2022-09-15T14:46:21.474Z,4.78
2022-09-15T14:48:51.258Z,4.53
2022-09-15T14:51:33.185Z,9.40
2022-09-15T14:54:01.803Z,29.38
2022-09-15T14:56:35.432Z,28.27
2022-09-15T14:59:15.910Z,15.77
2022-09-15T15:02:21.426Z,6.10
2022-09-15T15:04:57.589Z,5.60
2022-09-15T15:07:27.712Z,10.68
2022-09-15T15:10:04.514Z,5.00
2022-09-15T15:12:35.227Z,5.40
2022-09-15T15:15:03.044Z,6.32
2022-09-15T15:17:54.757Z,4.57
2022-09-15T15:20:25.080Z,4.78
2022-09-15T15:23:16.952Z,5.00
2022-09-15T15:25:43.713Z,5.72
2022-09-15T15:28:30.667Z,6.25
2022-09-15T15:31:14.744Z,5.20
2022-09-15T15:33:56.970Z,6.33
2022-09-15T15:36:27.614Z,6.00
2022-09-15T15:38:57.002Z,5.68
2022-09-15T15:41:28.318Z,5.22
2022-09-15T15:44:07.723Z,5.63
2022-09-15T15:46:55.008Z,5.93
2022-09-15T15:49:27.354Z,4.35
2022-09-15T15:51:55.402Z,4.22
2022-09-15T15:54:23.042Z,4.20
2022-09-15T15:56:50.349Z,3.95
2022-09-15T15:59:17.211Z,4.23
2022-09-15T16:01:44.807Z,3.53
2022-09-15T16:04:15.778Z,4.10
2022-09-15T16:06:44.361Z,3.63
2022-09-15T16:09:13.403Z,4.00
2022-09-15T16:11:41.117Z,3.70
2022-09-15T16:14:11.210Z,3.97
2022-09-15T16:16:37.779Z,4.40
2022-09-15T16:19:04.646Z,3.47
2022-09-15T16:21:40.174Z,3.83
2022-09-15T16:24:12.580Z,4.32
2022-09-15T16:26:39.947Z,3.60
2022-09-15T16:29:06.624Z,4.32
2022-09-15T16:31:33.907Z,4.25
2022-09-15T16:34:00.566Z,4.25
2022-09-15T16:36:27.138Z,3.95
2022-09-15T16:38:53.904Z,4.20
2022-09-15T16:41:26.105Z,3.70
2022-09-15T16:43:57.251Z,4.77
2022-09-15T16:46:23.988Z,4.70
2022-09-15T16:48:50.734Z,3.63
2022-09-15T16:51:27.912Z,3.97
2022-09-15T16:53:56.809Z,3.53
2022-09-15T16:56:23.501Z,3.55
2022-09-15T16:58:54.807Z,3.58
2022-09-15T17:01:25.220Z,3.63
2022-09-15T17:03:51.890Z,4.15
2022-09-15T17:06:18.721Z,3.70
2022-09-15T17:08:48.039Z,3.83
2022-09-15T17:11:20.127Z,4.32
2022-09-15T17:13:47.174Z,3.88
2022-09-15T17:16:17.240Z,4.40
2022-09-15T17:18:43.927Z,4.10
2022-09-15T17:21:12.224Z,4.55
2022-09-15T17:23:42.972Z,3.87
2022-09-15T17:26:15.274Z,4.33
2022-09-15T17:28:42.391Z,3.88
2022-09-15T17:31:22.159Z,4.50
2022-09-15T17:33:50.287Z,4.35
2022-09-15T17:36:17.366Z,4.10
2022-09-15T17:38:48.083Z,4.37
2022-09-15T17:41:17.077Z,4.55
2022-09-15T17:43:43.796Z,4.32
2022-09-15T17:46:12.832Z,3.97
2022-09-15T17:48:39.986Z,3.93
2022-09-15T17:51:09.638Z,4.72
2022-09-15T17:53:36.360Z,3.90
2022-09-15T17:56:03.439Z,4.22
2022-09-15T17:58:31.389Z,3.67
2022-09-15T18:00:58.975Z,3.85
2022-09-15T18:03:34.703Z,4.38
2022-09-15T18:06:06.478Z,3.83
2022-09-15T18:08:33.799Z,5.10
2022-09-15T18:11:00.829Z,4.40
2022-09-15T18:13:29.670Z,4.80
2022-09-15T18:15:57.165Z,4.63
2022-09-15T18:18:26.790Z,4.47
2022-09-15T18:20:57.879Z,4.40
2022-09-15T18:23:26.244Z,4.22
2022-09-15T18:25:53.089Z,5.00
2022-09-15T18:28:20.505Z,5.13
2022-09-15T18:30:49.625Z,5.25
2022-09-15T18:33:24.157Z,5.38
2022-09-15T18:35:54.707Z,4.53
2022-09-15T18:38:22.045Z,4.35
2022-09-15T18:40:55.258Z,4.30
2022-09-15T18:43:25.230Z,5.53
2022-09-15T18:46:01.171Z,5.50
2022-09-15T18:48:29.184Z,5.03
2022-09-15T18:50:55.992Z,5.35
2022-09-15T18:53:22.780Z,5.72
2022-09-15T18:55:50.286Z,6.20
2022-09-15T18:58:19.138Z,7.37
2022-09-15T19:00:46.050Z,7.23
2022-09-15T19:03:14.071Z,6.90
2022-09-15T19:05:40.961Z,6.32
2022-09-15T19:08:11.426Z,6.55
2022-09-15T19:10:47.948Z,8.20
2022-09-15T19:13:18.299Z,7.07
2022-09-15T19:15:45.063Z,6.38
2022-09-15T19:18:11.967Z,6.00
2022-09-15T19:20:38.696Z,8.00
2022-09-15T19:23:05.463Z,8.45
2022-09-15T19:25:36.114Z,11.70
2022-09-15T19:28:05.356Z,11.88
2022-09-15T19:30:32.006Z,15.67
2022-09-15T19:32:58.866Z,20.95
2022-09-15T19:35:28.719Z,27.67
2022-09-15T19:37:55.361Z,18.73
2022-09-15T19:40:25.014Z,10.60
2022-09-15T19:42:52.199Z,6.82
2022-09-15T19:45:19.032Z,7.93
2022-09-15T19:47:50.873Z,7.28
2022-09-15T19:50:17.745Z,8.02
2022-09-15T19:52:44.477Z,11.68
2022-09-15T19:55:12.439Z,14.20
2022-09-15T19:57:40.746Z,12.18
2022-09-15T20:00:10.730Z,30.58
2022-09-15T20:02:37.372Z,33.53
2022-09-15T20:07:48.885Z,31.90
2022-09-15T20:10:16.413Z,47.38
2022-09-15T20:12:43.166Z,36.90
2022-09-15T20:15:14.401Z,45.95
2022-09-15T20:17:42.309Z,30.85
2022-09-15T20:20:10.993Z,38.10
2022-09-15T20:22:37.647Z,32.90
2022-09-15T20:25:04.639Z,21.13
2022-09-15T20:27:33.641Z,25.20
2022-09-15T20:30:02.725Z,16.73
2022-09-15T20:32:29.401Z,17.17
2022-09-15T20:34:56.044Z,25.55
2022-09-15T20:37:23.071Z,18.27
2022-09-15T20:39:54.107Z,20.97
2022-09-15T20:42:26.768Z,20.07
2022-09-15T20:44:53.409Z,25.98
2022-09-15T20:47:23.107Z,14.43
2022-09-15T20:49:49.776Z,10.63
2022-09-15T20:52:16.650Z,11.20
2022-09-15T20:54:43.237Z,12.73
2022-09-15T20:57:10.221Z,16.58
2022-09-15T20:59:37.198Z,24.73
2022-09-15T21:02:05.905Z,32.55
2022-09-15T21:04:32.755Z,32.78
2022-09-15T21:07:02.370Z,38.40
2022-09-15T21:09:35.047Z,45.43
2022-09-15T21:12:01.791Z,41.78
2022-09-15T21:14:28.690Z,36.60
2022-09-15T21:16:57.610Z,39.25
2022-09-15T21:19:37.990Z,43.17
2022-09-15T21:22:07.259Z,37.75
2022-09-15T21:24:33.859Z,43.15
2022-09-15T21:27:19.010Z,30.20
2022-09-15T21:29:45.626Z,35.90
2022-09-15T21:32:12.179Z,43.65
2022-09-15T21:34:38.788Z,33.92
2022-09-15T21:37:05.690Z,46.55
2022-09-15T21:39:32.444Z,36.20
2022-09-15T21:41:59.331Z,35.60
2022-09-15T21:44:25.893Z,49.65
2022-09-15T21:46:52.766Z,44.50
2022-09-15T21:49:20.167Z,32.08
2022-09-15T21:51:47.551Z,29.33
2022-09-15T21:54:16.761Z,47.77
2022-09-15T21:56:43.386Z,43.75
2022-09-15T21:59:10.826Z,35.38
2022-09-15T22:01:37.494Z,59.92
2022-09-15T22:04:08.523Z,38.25
2022-09-15T22:06:40.502Z,30.02
2022-09-15T22:09:21.314Z,43.13
2022-09-15T22:11:49.055Z,49.22
2022-09-15T22:14:17.929Z,44.35
2022-09-15T22:16:44.600Z,37.00
2022-09-15T22:19:11.788Z,47.75
2022-09-15T22:21:41.781Z,58.50
2022-09-15T22:24:11.951Z,53.40
2022-09-15T22:26:39.585Z,83.55
2022-09-15T22:29:07.038Z,61.63
2022-09-15T22:31:34.472Z,63.65
2022-09-15T22:34:01.169Z,63.75
2022-09-15T22:36:30.290Z,58.03
2022-09-15T22:39:04.139Z,67.78
2022-09-15T22:41:33.365Z,47.45
2022-09-15T22:43:59.963Z,51.38
2022-09-15T22:46:29.020Z,53.22
2022-09-15T22:48:55.669Z,45.45
2022-09-15T22:51:22.279Z,40.00
2022-09-15T22:53:49.068Z,50.80
2022-09-15T22:56:19.941Z,54.40
2022-09-15T22:58:48.511Z,70.38
2022-09-15T23:01:27.918Z,61.33
2022-09-15T23:03:59.914Z,75.30
2022-09-15T23:06:28.584Z,105.22
2022-09-15T23:08:57.586Z,114.07
2022-09-15T23:11:26.057Z,145.95
2022-09-15T23:13:53.902Z,188.97
2022-09-15T23:16:22.000Z,177.20
2022-09-15T23:18:49.905Z,248.85
2022-09-15T23:21:16.752Z,290.90
2022-09-15T23:23:47.647Z,316.33
2022-09-15T23:26:16.648Z,332.55
2022-09-15T23:28:43.464Z,333.27
2022-09-15T23:31:12.341Z,317.58
2022-09-15T23:33:39.797Z,308.23
2022-09-15T23:36:09.256Z,317.00
2022-09-15T23:38:37.382Z,310.02
2022-09-15T23:41:06.648Z,307.27
2022-09-15T23:43:33.776Z,292.25
2022-09-15T23:46:01.388Z,285.55
2022-09-15T23:48:28.020Z,279.02
2022-09-15T23:50:54.983Z,301.77
2022-09-15T23:53:21.823Z,306.55
2022-09-15T23:55:48.679Z,304.48
2022-09-15T23:58:15.634Z,311.42
